Time;durP1;ratioP1;P1;durP2;ratioP2;P2;SDS_P1;SDS_P2;PMS_P1;PMS_P2;Temp;Humidity;BMP_temperature;BMP_pressure;BME280_temperature;BME280_humidity;BME280_pressure;Samples;Min_cycle;Max_cycle;Signal;HPM_P1;HPM_P2
2022/03/28 00:01:33;;;;;;;;;;;;;;;11.39;50.48;101576.66;6122195;23;6838;-74
2022/03/28 00:03:58;;;;;;;;;;;;;;;11.37;49.89;101573.13;6146005;23;6912;-74
2022/03/28 00:06:25;;;;;;;;;;;;;;;11.35;50.09;101567.00;6122940;23;6762;-74
2022/03/28 00:08:50;;;;;;;;;;;;;;;11.33;50.12;101568.59;6122881;23;6947;-74
2022/03/28 00:11:17;;;;;;;;;;;;;;;11.33;50.23;101571.16;6146076;23;6751;-74
2022/03/28 00:13:44;;;;;;;;;;;;;;;11.30;49.96;101566.72;6125635;23;6850;-74
2022/03/28 00:16:11;;;;;;;;;;;;;;;11.27;50.07;101570.75;6123454;23;6971;-74
2022/03/28 00:18:37;;;;;;;;;;;;;;;11.22;49.76;101562.75;6127654;23;6951;-74
2022/03/28 00:21:03;;;;;;;;;;;;;;;11.17;50.16;101561.59;6129967;23;6864;-74
2022/03/28 00:23:32;;;;;;;;;;;;;;;11.12;50.06;101571.56;6105348;23;8331;-74
2022/03/28 00:25:59;;;;;;;;;;;;;;;11.06;50.38;101561.78;6151683;23;6802;-74
2022/03/28 00:28:26;;;;;;;;;;;;;;;10.99;50.29;101554.47;6125639;23;6958;-74
2022/03/28 00:30:51;;;;;;;;;;;;;;;10.94;50.58;101551.63;6122985;23;7314;-74
2022/03/28 00:33:17;;;;;;;;;;;;;;;10.90;50.46;101552.19;6122215;23;6775;-74
2022/03/28 00:35:43;;;;;;;;;;;;;;;10.89;51.03;101547.84;6101843;23;7230;-74
2022/03/28 00:38:11;;;;;;;;;;;;;;;10.88;50.85;101546.06;6124565;23;6946;-74
2022/03/28 00:40:38;;;;;;;;;;;;;;;10.86;50.62;101539.97;6125707;23;6806;-74
2022/03/28 00:43:08;;;;;;;;;;;;;;;10.84;50.57;101544.97;6123838;23;6782;-74
2022/03/28 00:45:40;;;;;;;;;;;;;;;10.81;50.46;101538.75;6100012;23;6959;-74
2022/03/28 00:48:09;;;;;;;;;;;;;;;10.79;50.52;101542.91;6122301;23;6887;-74
2022/03/28 00:50:36;;;;;;;;;;;;;;;10.77;51.02;101537.72;6124487;23;6949;-74
2022/03/28 00:53:05;;;;;;;;;;;;;;;10.77;51.19;101526.53;6121265;23;6790;-74
2022/03/28 00:55:31;;;;;;;;;;;;;;;10.76;51.58;101524.78;6122750;23;6924;-74
2022/03/28 00:57:57;;;;;;;;;;;;;;;10.76;51.27;101519.66;6121771;23;6790;-74
2022/03/28 01:00:23;;;;;;;;;;;;;;;10.74;51.19;101519.53;6145290;23;6993;-74
2022/03/28 01:02:50;;;;;;;;;;;;;;;10.72;51.29;101513.41;6121232;23;6798;-74
2022/03/28 01:05:16;;;;;;;;;;;;;;;10.71;51.43;101511.66;6100849;23;6980;-74
2022/03/28 01:07:42;;;;;;;;;;;;;;;10.70;50.90;101512.44;6123148;23;8253;-74
2022/03/28 01:10:10;;;;;;;;;;;;;;;10.70;51.45;101504.75;6121604;23;6786;-74
2022/03/28 01:12:44;;;;;;;;;;;;;;;10.68;51.48;101507.19;6121412;23;6783;-74
2022/03/28 01:15:14;;;;;;;;;;;;;;;10.67;51.72;101504.53;6119595;23;7183;-74
2022/03/28 01:20:32;;;;;;;;;;;;;;;10.58;51.84;101499.69;6124414;23;6959;-76
2022/03/28 01:22:58;;;;;;;;;;;;;;;10.56;51.77;101496.16;6123315;23;7037;-76
2022/03/28 01:25:29;;;;;;;;;;;;;;;10.55;51.62;101494.38;6125123;23;6937;-76
2022/03/28 01:27:58;;;;;;;;;;;;;;;10.53;51.63;101490.84;6125747;23;8030;-76
2022/03/28 01:30:27;;;;;;;;;;;;;;;10.52;51.10;101489.03;6124995;23;6921;-76
2022/03/28 01:32:53;;;;;;;;;;;;;;;10.49;51.66;101489.75;6124589;23;6786;-76
2022/03/28 01:35:35;;;;;;;;;;;;;;;10.49;51.81;101483.72;6126405;23;6787;-76
2022/03/28 01:38:06;;;;;;;;;;;;;;;10.47;51.78;101481.03;6124251;23;6783;-76
2022/03/28 01:40:35;;;;;;;;;;;;;;;10.48;51.95;101481.94;6125754;23;6783;-76
2022/03/28 01:43:01;;;;;;;;;;;;;;;10.48;51.57;101477.72;6096846;23;7208;-76
2022/03/28 01:45:27;;;;;;;;;;;;;;;10.48;51.64;101477.72;6124184;23;6786;-76
2022/03/28 01:47:53;;;;;;;;;;;;;;;10.47;51.72;101469.91;6100321;23;6840;-76
2022/03/28 01:50:20;;;;;;;;;;;;;;;10.45;51.83;101462.13;6123697;23;7071;-76
2022/03/28 01:52:45;;;;;;;;;;;;;;;10.44;51.71;101459.47;6122906;23;7096;-76
2022/03/28 01:55:12;;;;;;;;;;;;;;;10.40;51.67;101464.34;6101193;23;6870;-76
2022/03/28 01:57:40;;;;;;;;;;;;;;;10.38;51.33;101471.06;6098502;23;7048;-77
2022/03/28 02:00:10;;;;;;;;;;;;;;;10.33;51.53;101466.41;6123151;23;7026;-77
2022/03/28 02:02:37;;;;;;;;;;;;;;;10.31;51.77;101468.00;6126440;23;6859;-77
2022/03/28 02:05:05;;;;;;;;;;;;;;;10.26;52.17;101465.13;6127745;23;6787;-77
2022/03/28 02:07:30;;;;;;;;;;;;;;;10.24;51.61;101461.56;6103353;23;7026;-77
2022/03/28 02:09:56;;;;;;;;;;;;;;;10.20;52.08;101467.25;6127179;23;6917;-77
2022/03/28 02:12:22;;;;;;;;;;;;;;;10.20;51.35;101474.94;6125496;23;6767;-77
2022/03/28 02:14:48;;;;;;;;;;;;;;;10.15;51.94;101466.97;6103902;23;7949;-77
2022/03/28 02:17:14;;;;;;;;;;;;;;;10.11;51.78;101465.00;6104179;23;6862;-77
2022/03/28 02:19:39;;;;;;;;;;;;;;;10.08;52.75;101459.66;6127644;23;6803;-74
2022/03/28 02:22:05;;;;;;;;;;;;;;;10.06;52.68;101468.91;6128552;23;6926;-74
2022/03/28 02:24:31;;;;;;;;;;;;;;;10.03;52.98;101467.00;6152681;23;8022;-74
2022/03/28 02:26:57;;;;;;;;;;;;;;;10.01;52.94;101463.47;6130163;23;7163;-74
2022/03/28 02:29:22;;;;;;;;;;;;;;;9.98;53.21;101461.59;6105116;23;6799;-74
2022/03/28 02:31:48;;;;;;;;;;;;;;;9.97;53.07;101464.06;6130354;23;6771;-74
2022/03/28 02:34:14;;;;;;;;;;;;;;;9.93;52.86;101459.50;6127955;23;7816;-74
2022/03/28 02:36:40;;;;;;;;;;;;;;;9.91;53.11;101461.97;6104433;23;7074;-74
2022/03/28 02:39:06;;;;;;;;;;;;;;;9.87;52.86;101457.41;6152517;23;6938;-74
2022/03/28 02:41:32;;;;;;;;;;;;;;;9.83;52.80;101450.31;6127538;23;8038;-74
2022/03/28 02:43:57;;;;;;;;;;;;;;;9.80;53.37;101452.66;6152917;23;6774;-77
2022/03/28 02:46:24;;;;;;;;;;;;;;;9.75;53.64;101442.09;6129026;23;6778;-75
2022/03/28 02:48:50;;;;;;;;;;;;;;;9.73;53.53;101443.69;6104454;23;6968;-75
2022/03/28 02:51:16;;;;;;;;;;;;;;;9.70;54.04;101438.34;6128245;23;6799;-75
2022/03/28 02:53:41;;;;;;;;;;;;;;;9.67;53.70;101428.78;6119610;23;6831;-75
2022/03/28 02:56:07;;;;;;;;;;;;;;;9.65;54.25;101432.03;6115679;23;7033;-75
2022/03/28 02:58:33;;;;;;;;;;;;;;;9.63;53.52;101428.47;6114932;23;7016;-75
2022/03/28 03:00:58;;;;;;;;;;;;;;;9.62;53.91;101426.69;6115210;23;6775;-75
2022/03/28 03:03:24;;;;;;;;;;;;;;;9.61;54.23;101419.81;6110263;23;6810;-75
2022/03/28 03:05:50;;;;;;;;;;;;;;;9.61;54.15;101420.72;6112300;23;6862;-75
2022/03/28 03:08:16;;;;;;;;;;;;;;;9.62;54.29;101425.03;6115309;23;6774;-75
2022/03/28 03:10:43;;;;;;;;;;;;;;;9.61;54.19;101424.94;6109234;23;6955;-75
2022/03/28 03:13:09;;;;;;;;;;;;;;;9.59;53.74;101417.13;6110495;23;7027;-75
2022/03/28 03:15:36;;;;;;;;;;;;;;;9.58;54.21;101416.25;6113929;23;6782;-75
2022/03/28 03:18:04;;;;;;;;;;;;;;;9.57;54.04;101414.50;6110523;23;6783;-75
2022/03/28 03:20:32;;;;;;;;;;;;;;;9.56;53.99;101415.28;6131544;23;7058;-75
2022/03/28 03:22:59;;;;;;;;;;;;;;;9.53;54.05;101402.25;6106965;23;6969;-75
2022/03/28 03:25:25;;;;;;;;;;;;;;;9.50;54.26;101407.16;6111369;23;7070;-75
2022/03/28 03:27:51;;;;;;;;;;;;;;;9.49;54.16;101405.41;6128952;23;6767;-75
2022/03/28 03:30:20;;;;;;;;;;;;;;;9.48;54.43;101403.63;6082607;23;8440;-75
2022/03/28 03:32:46;;;;;;;;;;;;;;;9.45;55.19;101393.16;6109978;23;6942;-75
2022/03/28 03:35:12;;;;;;;;;;;;;;;9.44;55.02;101394.84;6111807;23;6940;-75
2022/03/28 03:37:39;;;;;;;;;;;;;;;9.43;54.77;101394.72;6083493;23;7817;-75
2022/03/28 03:40:07;;;;;;;;;;;;;;;9.41;55.33;101402.28;6085165;23;7075;-75
2022/03/28 03:42:32;;;;;;;;;;;;;;;9.40;54.81;101397.09;6086274;23;6971;-75
2022/03/28 03:44:59;;;;;;;;;;;;;;;9.38;54.38;101390.97;6112201;23;6797;-75
2022/03/28 03:47:25;;;;;;;;;;;;;;;9.37;55.10;101390.09;6135028;23;7090;-75
2022/03/28 03:49:52;;;;;;;;;;;;;;;9.35;54.81;101390.75;6110102;23;6947;-75
2022/03/28 03:52:18;;;;;;;;;;;;;;;9.33;55.38;101382.09;6136858;23;6783;-75
2022/03/28 03:54:44;;;;;;;;;;;;;;;9.29;55.67;101379.34;6111840;23;6767;-75
2022/03/28 03:57:10;;;;;;;;;;;;;;;9.28;54.97;101374.09;6111041;23;6950;-75
2022/03/28 03:59:35;;;;;;;;;;;;;;;9.27;55.54;101378.34;6111897;23;6960;-75
2022/03/28 04:02:01;;;;;;;;;;;;;;;9.26;56.05;101371.41;6112682;23;6854;-75
2022/03/28 04:04:27;;;;;;;;;;;;;;;9.26;55.83;101375.66;6086436;23;7196;-75
2022/03/28 04:06:53;;;;;;;;;;;;;;;9.28;55.14;101372.44;6113466;23;6771;-75
2022/03/28 04:09:19;;;;;;;;;;;;;;;9.28;55.65;101375.00;6110416;23;6766;-75
2022/03/28 04:11:45;;;;;;;;;;;;;;;9.29;56.22;101376.78;6109494;23;6783;-75
2022/03/28 04:14:10;;;;;;;;;;;;;;;9.29;55.67;101375.88;6109751;23;6914;-75
2022/03/28 04:16:36;;;;;;;;;;;;;;;9.28;55.67;101374.09;6088550;23;6922;-75
2022/03/28 04:19:02;;;;;;;;;;;;;;;9.27;55.42;101367.22;6109413;23;7792;-75
2022/03/28 04:21:27;;;;;;;;;;;;;;;9.25;56.04;101372.22;6109920;23;7032;-75
2022/03/28 04:23:53;;;;;;;;;;;;;;;9.22;55.61;101366.00;6110120;23;7025;-75
2022/03/28 04:26:19;;;;;;;;;;;;;;;9.18;56.00;101367.47;6111949;23;6997;-75
2022/03/28 04:28:45;;;;;;;;;;;;;;;9.13;54.93;101358.59;6088809;23;6854;-75
2022/03/28 04:31:10;;;;;;;;;;;;;;;9.10;55.97;101356.69;6111693;23;6846;-75
2022/03/28 04:33:37;;;;;;;;;;;;;;;9.07;55.23;101356.50;6111747;23;7349;-75
2022/03/28 04:36:03;;;;;;;;;;;;;;;9.03;55.06;101360.50;6111038;23;6810;-75
2022/03/28 04:38:30;;;;;;;;;;;;;;;8.99;55.25;101355.97;6112989;23;7110;-75
2022/03/28 04:40:55;;;;;;;;;;;;;;;8.96;55.38;101365.97;6086731;23;6782;-75
2022/03/28 04:43:21;;;;;;;;;;;;;;;8.94;55.10;101364.97;6114839;23;6778;-75
2022/03/28 04:45:48;;;;;;;;;;;;;;;8.91;55.04;101371.53;6112469;23;6974;-75
2022/03/28 04:48:14;;;;;;;;;;;;;;;8.85;56.00;101367.78;6112585;23;6778;-75
2022/03/28 04:50:40;;;;;;;;;;;;;;;8.82;55.20;101367.53;6112905;23;6997;-75
2022/03/28 04:53:06;;;;;;;;;;;;;;;8.79;55.66;101361.31;6110588;23;6771;-75
2022/03/28 04:55:32;;;;;;;;;;;;;;;8.79;55.32;101366.44;6112317;23;6814;-75
2022/03/28 04:57:58;;;;;;;;;;;;;;;8.77;55.14;101363.78;6112648;23;6770;-75
2022/03/28 05:00:24;;;;;;;;;;;;;;;8.75;55.64;101371.34;6115238;23;6931;-75
2022/03/28 05:02:50;;;;;;;;;;;;;;;8.74;56.42;101361.91;6110639;23;6938;-75
2022/03/28 05:05:15;;;;;;;;;;;;;;;8.73;55.74;101357.56;6088558;23;6763;-75
2022/03/28 05:07:42;;;;;;;;;;;;;;;8.71;55.50;101356.59;6112323;23;6849;-75
2022/03/28 05:10:08;;;;;;;;;;;;;;;8.70;55.77;101365.03;6138668;23;6866;-75
2022/03/28 05:12:35;;;;;;;;;;;;;;;8.65;55.43;101356.13;6115068;23;6865;-75
2022/03/28 05:15:02;;;;;;;;;;;;;;;8.64;55.41;101358.56;6114100;23;7137;-75
2022/03/28 05:17:31;;;;;;;;;;;;;;;8.61;56.60;101361.81;6113651;23;7377;-75
2022/03/28 05:19:59;;;;;;;;;;;;;;;8.61;57.37;101352.47;6115194;23;6964;-75
2022/03/28 05:22:25;;;;;;;;;;;;;;;8.65;56.68;101356.13;6113397;23;7014;-75
2022/03/28 05:24:53;;;;;;;;;;;;;;;8.67;56.63;101346.03;6114442;23;7048;-75
2022/03/28 05:27:20;;;;;;;;;;;;;;;8.69;57.18;101350.47;6112728;23;7111;-75
2022/03/28 05:29:46;;;;;;;;;;;;;;;8.70;56.87;101347.13;6113411;23;7102;-75
2022/03/28 05:32:12;;;;;;;;;;;;;;;8.71;56.21;101348.91;6113536;23;6878;-75
2022/03/28 05:34:38;;;;;;;;;;;;;;;8.74;56.99;101351.69;6114654;23;6782;-75
2022/03/28 05:37:17;;;;;;;;;;;;;;;8.75;56.77;101356.00;6113730;23;6782;-75
2022/03/28 05:39:46;;;;;;;;;;;;;;;8.78;57.29;101355.34;6087417;23;7078;-75
2022/03/28 05:42:12;;;;;;;;;;;;;;;8.81;57.34;101352.13;6112862;23;7175;-75
2022/03/28 05:44:41;;;;;;;;;;;;;;;8.83;56.36;101351.41;6113734;23;6775;-75
2022/03/28 05:47:07;;;;;;;;;;;;;;;8.85;56.71;101352.44;6137998;23;7017;-75
2022/03/28 05:49:33;;;;;;;;;;;;;;;8.87;57.33;101348.31;6114147;23;6786;-75
2022/03/28 05:51:58;;;;;;;;;;;;;;;8.92;56.52;101353.75;6114230;23;6855;-75
2022/03/28 05:54:24;;;;;;;;;;;;;;;8.95;56.62;101351.41;6111866;23;6778;-75
2022/03/28 05:56:50;;;;;;;;;;;;;;;8.97;56.80;101352.38;6114144;23;6782;-75
2022/03/28 05:59:15;;;;;;;;;;;;;;;9.03;56.60;101351.97;6116029;23;6914;-75
2022/03/28 06:01:41;;;;;;;;;;;;;;;9.07;57.42;101345.34;6112110;23;7006;-75
2022/03/28 06:04:07;;;;;;;;;;;;;;;9.10;57.15;101351.56;6115152;23;6845;-75
2022/03/28 06:06:34;;;;;;;;;;;;;;;9.14;56.26;101345.00;6137174;23;6790;-75
2022/03/28 06:09:00;;;;;;;;;;;;;;;9.18;57.37;101349.56;6087075;23;6950;-75
2022/03/28 06:11:26;;;;;;;;;;;;;;;9.23;57.07;101357.56;6111444;23;7039;-75
2022/03/28 06:13:53;;;;;;;;;;;;;;;9.28;57.39;101349.41;6112917;23;6973;-75
2022/03/28 06:16:19;;;;;;;;;;;;;;;9.37;57.14;101361.06;6113197;23;7908;-75
2022/03/28 06:18:45;;;;;;;;;;;;;;;9.42;57.60;101355.47;6112747;23;6847;-75
2022/03/28 06:21:11;;;;;;;;;;;;;;;9.50;57.28;101355.09;6112763;23;6896;-75
2022/03/28 06:23:37;;;;;;;;;;;;;;;9.58;56.75;101354.84;6115563;23;6774;-75
2022/03/28 06:26:04;;;;;;;;;;;;;;;9.69;57.51;101357.22;6115363;23;7082;-75
2022/03/28 06:28:30;;;;;;;;;;;;;;;9.78;57.07;101346.69;6113032;23;7177;-76
2022/03/28 06:30:57;;;;;;;;;;;;;;;9.88;57.69;101355.88;6112658;23;6770;-75
2022/03/28 06:33:24;;;;;;;;;;;;;;;9.97;57.44;101353.94;6113458;23;7091;-76
2022/03/28 06:35:52;;;;;;;;;;;;;;;10.07;57.60;101345.16;6113957;23;8027;-75
2022/03/28 06:38:18;;;;;;;;;;;;;;;10.17;57.33;101349.22;6089179;23;7214;-75
2022/03/28 06:40:44;;;;;;;;;;;;;;;10.30;57.56;101338.97;6086326;23;7132;-75
2022/03/28 06:43:10;;;;;;;;;;;;;;;10.45;57.39;101343.34;6111395;23;6774;-75
2022/03/28 06:45:36;;;;;;;;;;;;;;;10.60;57.24;101344.28;6111893;23;7011;-75
2022/03/28 06:48:03;;;;;;;;;;;;;;;10.77;57.36;101341.91;6108915;23;6787;-76
2022/03/28 06:50:29;;;;;;;;;;;;;;;10.94;57.86;101340.38;6107258;23;6787;-76
2022/03/28 06:52:55;;;;;;;;;;;;;;;11.09;57.05;101341.34;6110913;23;6842;-75
2022/03/28 06:55:22;;;;;;;;;;;;;;;11.23;57.05;101338.72;6112402;23;6963;-75
2022/03/28 06:57:48;;;;;;;;;;;;;;;11.35;57.03;101339.47;6112876;23;6928;-75
2022/03/28 07:00:15;;;;;;;;;;;;;;;11.45;56.82;101328.06;6110881;23;7005;-75
2022/03/28 07:02:41;;;;;;;;;;;;;;;11.57;56.70;101332.13;6110710;23;6837;-75
2022/03/28 07:05:07;;;;;;;;;;;;;;;11.66;56.89;101327.53;6110256;23;6778;-75
2022/03/28 07:07:48;;;;;;;;;;;;;;;11.77;56.22;101326.47;6088241;23;6771;-75
2022/03/28 07:10:20;;;;;;;;;;;;;;;11.90;56.19;101329.78;6110349;23;7482;-75
2022/03/28 07:12:47;;;;;;;;;;;;;;;12.01;56.40;101323.56;6109362;23;6900;-75
2022/03/28 07:15:14;;;;;;;;;;;;;;;12.12;55.97;101325.88;6086918;23;6973;-76
2022/03/28 07:17:52;;;;;;;;;;;;;;;12.23;56.29;101329.94;6111367;23;7387;-75
2022/03/28 07:20:21;;;;;;;;;;;;;;;12.32;55.57;101327.00;6112047;23;6933;-75
2022/03/28 07:22:46;;;;;;;;;;;;;;;12.41;55.85;101326.63;6112041;23;7241;-76
2022/03/28 07:25:12;;;;;;;;;;;;;;;12.51;55.04;101326.31;6109617;23;6879;-76
2022/03/28 07:27:40;;;;;;;;;;;;;;;12.61;55.33;101328.59;6111464;23;6782;-76
2022/03/28 07:30:09;;;;;;;;;;;;;;;12.70;56.10;101317.03;6109781;23;6862;-76
2022/03/28 07:32:36;;;;;;;;;;;;;;;12.79;55.12;101317.53;6108937;23;6955;-76
2022/03/28 07:35:04;;;;;;;;;;;;;;;12.89;55.64;101317.22;6108112;23;6944;-75
2022/03/28 07:37:30;;;;;;;;;;;;;;;13.01;55.29;101303.22;6107031;23;6888;-75
2022/03/28 07:39:56;;;;;;;;;;;;;;;13.10;55.35;101301.13;6109732;23;7192;-75
2022/03/28 07:42:22;;;;;;;;;;;;;;;13.22;55.57;101300.00;6109861;23;7984;-75
2022/03/28 07:44:48;;;;;;;;;;;;;;;13.32;54.95;101300.56;6110471;23;6918;-75
2022/03/28 07:47:14;;;;;;;;;;;;;;;13.43;54.87;101292.50;6085117;23;7100;-76
2022/03/28 07:49:40;;;;;;;;;;;;;;;13.54;55.22;101295.66;6111368;23;7798;-75
2022/03/28 07:52:09;;;;;;;;;;;;;;;13.66;55.38;101296.25;6111961;23;6791;-75
2022/03/28 07:54:36;;;;;;;;;;;;;;;13.78;55.38;101288.25;6111379;23;6874;-75
2022/03/28 07:57:03;;;;;;;;;;;;;;;13.92;55.16;101285.47;6134883;23;7170;-75
2022/03/28 07:59:29;;;;;;;;;;;;;;;14.06;55.20;101291.28;6086919;23;6815;-75
2022/03/28 08:01:55;;;;;;;;;;;;;;;14.17;55.08;101282.38;6085111;23;7396;-75
2022/03/28 08:04:21;;;;;;;;;;;;;;;14.30;54.73;101286.41;6113056;23;6959;-75
2022/03/28 08:06:47;;;;;;;;;;;;;;;14.43;54.62;101285.28;6111917;23;7050;-75
2022/03/28 08:09:12;;;;;;;;;;;;;;;14.55;54.01;101282.41;6112928;23;7117;-75
2022/03/28 08:11:38;;;;;;;;;;;;;;;14.68;53.92;101287.28;6111061;23;6758;-75
2022/03/28 08:14:04;;;;;;;;;;;;;;;14.80;54.08;101274.09;6111353;23;6925;-75
2022/03/28 08:16:31;;;;;;;;;;;;;;;14.94;53.50;101273.81;6106577;23;7244;-75
2022/03/28 08:18:56;;;;;;;;;;;;;;;15.06;53.84;101271.75;6134004;23;6943;-75
2022/03/28 08:21:22;;;;;;;;;;;;;;;15.22;53.86;101272.44;6108792;23;6775;-76
2022/03/28 08:23:48;;;;;;;;;;;;;;;15.35;52.92;101261.78;6111169;23;6948;-76
2022/03/28 08:26:14;;;;;;;;;;;;;;;15.45;53.30;101264.78;6111692;23;6916;-76
2022/03/28 08:28:39;;;;;;;;;;;;;;;15.59;52.56;101262.75;6110728;23;6782;-76
2022/03/28 08:31:06;;;;;;;;;;;;;;;15.71;52.45;101259.81;6134194;23;6906;-75
2022/03/28 08:33:32;;;;;;;;;;;;;;;15.83;52.76;101253.44;6135075;23;6786;-75
2022/03/28 08:35:58;;;;;;;;;;;;;;;15.96;52.61;101247.09;6111886;23;7018;-75
2022/03/28 08:38:23;;;;;;;;;;;;;;;16.09;52.43;101250.13;6111103;23;7055;-75
2022/03/28 08:40:49;;;;;;;;;;;;;;;16.20;52.31;101243.66;6112482;23;6834;-74
2022/03/28 08:43:22;;;;;;;;;;;;;;;16.34;52.44;101240.75;6112149;23;6866;-74
2022/03/28 08:45:51;;;;;;;;;;;;;;;16.47;51.90;101242.09;6110780;23;6865;-75
2022/03/28 08:48:18;;;;;;;;;;;;;;;16.61;51.73;101240.88;6110382;23;6778;-75
2022/03/28 08:50:47;;;;;;;;;;;;;;;16.75;51.76;101237.91;6111783;23;6963;-75
2022/03/28 08:53:14;;;;;;;;;;;;;;;16.90;51.49;101237.56;6112496;23;6795;-74
2022/03/28 08:55:45;;;;;;;;;;;;;;;17.03;51.62;101229.44;6113639;23;6853;-75
2022/03/28 08:58:13;;;;;;;;;;;;;;;17.17;50.83;101235.09;6136125;23;6783;-75
2022/03/28 09:00:39;;;;;;;;;;;;;;;17.31;50.33;101232.09;6110980;23;6782;-75
2022/03/28 09:03:05;;;;;;;;;;;;;;;17.43;50.90;101229.03;6082536;23;6779;-75
2022/03/28 09:05:41;;;;;;;;;;;;;;;17.56;50.84;101236.38;6109331;23;6762;-75
2022/03/28 09:08:09;;;;;;;;;;;;;;;17.69;49.92;101229.88;6088740;23;6783;-75
2022/03/28 09:10:36;;;;;;;;;;;;;;;17.82;49.90;101228.56;6111288;23;6779;-75
2022/03/28 09:13:16;;;;;;;;;;;;;;;17.94;49.43;101232.34;6111581;23;6937;-75
2022/03/28 09:15:46;;;;;;;;;;;;;;;18.04;49.42;101229.25;6109347;23;6806;-75
2022/03/28 09:18:26;;;;;;;;;;;;;;;18.15;49.33;101221.78;6111594;23;7189;-75
2022/03/28 09:20:55;;;;;;;;;;;;;;;18.29;48.75;101220.47;6111649;23;6982;-75
2022/03/28 09:23:32;;;;;;;;;;;;;;;18.43;48.67;101213.09;6110403;23;7111;-75
2022/03/28 09:25:58;;;;;;;;;;;;;;;18.58;48.39;101204.00;6112815;23;7424;-75
2022/03/28 09:28:48;;;;;;;;;;;;;;;18.74;47.91;101195.78;6110825;23;6881;-75
2022/03/28 09:31:25;;;;;;;;;;;;;;;18.88;47.38;101192.66;6109865;23;6958;-74
2022/03/28 09:34:09;;;;;;;;;;;;;;;19.03;47.91;101199.16;6110338;23;7165;-74
2022/03/28 09:36:55;;;;;;;;;;;;;;;19.17;46.96;101191.69;6111323;23;6887;-74
2022/03/28 09:39:29;;;;;;;;;;;;;;;19.28;46.79;101191.13;6085231;23;6771;-74
2022/03/28 09:42:11;;;;;;;;;;;;;;;19.41;46.50;101184.50;6111079;23;6837;-74
2022/03/28 09:44:51;;;;;;;;;;;;;;;19.54;45.86;101185.69;6137042;23;6869;-74
2022/03/28 09:47:24;;;;;;;;;;;;;;;19.66;46.02;101174.69;6113007;23;6779;-74
2022/03/28 09:49:54;;;;;;;;;;;;;;;19.77;45.36;101182.72;6113561;23;6858;-74
2022/03/28 09:52:28;;;;;;;;;;;;;;;19.88;45.64;101182.06;6112391;23;7047;-75
2022/03/28 09:54:57;;;;;;;;;;;;;;;19.95;44.70;101173.59;6112485;23;7098;-75
2022/03/28 09:57:33;;;;;;;;;;;;;;;20.03;44.55;101161.63;6112091;23;6779;-75
2022/03/28 10:00:17;;;;;;;;;;;;;;;20.14;44.77;101158.38;6112970;23;7190;-75
2022/03/28 10:02:44;;;;;;;;;;;;;;;20.23;44.13;101162.06;6111396;23;6870;-75
2022/03/28 10:05:10;;;;;;;;;;;;;;;20.32;44.28;101163.97;6113147;23;7301;-75
2022/03/28 10:07:36;;;;;;;;;;;;;;;20.41;43.77;101152.84;6112278;23;7995;-75
2022/03/28 10:10:04;;;;;;;;;;;;;;;20.52;43.92;101155.66;6111313;23;6786;-75
2022/03/28 10:12:30;;;;;;;;;;;;;;;20.63;43.63;101150.66;6110487;23;6969;-76
2022/03/28 10:14:58;;;;;;;;;;;;;;;20.73;43.47;101149.97;6110728;23;7169;-76
2022/03/28 10:17:30;;;;;;;;;;;;;;;20.87;43.26;101150.25;6113454;23;7051;-76
2022/03/28 10:19:58;;;;;;;;;;;;;;;21.03;42.98;101143.56;6113759;23;6874;-75
2022/03/28 10:22:39;;;;;;;;;;;;;;;21.30;42.85;101143.97;6112120;23;7147;-75
2022/03/28 10:25:16;;;;;;;;;;;;;;;21.88;42.86;101136.16;6114076;23;7379;-76
2022/03/28 10:27:43;;;;;;;;;;;;;;;22.85;41.52;101135.44;6090570;23;7032;-76
2022/03/28 10:30:22;;;;;;;;;;;;;;;24.12;41.00;101118.81;6110825;23;6898;-76
2022/03/28 10:33:16;;;;;;;;;;;;;;;25.54;38.87;101117.16;6112905;23;6874;-76
2022/03/28 10:36:07;;;;;;;;;;;;;;;26.82;37.02;101108.56;6111424;23;6779;-76
2022/03/28 10:38:33;;;;;;;;;;;;;;;27.75;36.02;101105.03;6087726;23;7124;-76
2022/03/28 10:41:01;;;;;;;;;;;;;;;28.52;34.08;101104.88;6112692;23;6938;-76
2022/03/28 10:43:33;;;;;;;;;;;;;;;29.22;33.87;101088.72;6114366;23;7883;-76
2022/03/28 10:46:09;;;;;;;;;;;;;;;29.79;32.73;101089.38;6086590;23;6787;-76
2022/03/28 10:48:39;;;;;;;;;;;;;;;30.30;32.42;101082.09;6111862;23;6791;-76
2022/03/28 10:51:11;;;;;;;;;;;;;;;30.86;31.26;101086.03;6114148;23;6787;-76
2022/03/28 10:53:46;;;;;;;;;;;;;;;31.32;30.65;101075.13;6113934;23;7075;-76
2022/03/28 10:56:38;;;;;;;;;;;;;;;31.81;30.16;101077.28;6111335;23;6977;-76
2022/03/28 10:59:11;;;;;;;;;;;;;;;32.24;29.12;101067.09;6109465;23;6991;-76
2022/03/28 11:01:52;;;;;;;;;;;;;;;32.40;28.98;101073.69;6108379;23;7144;-76
2022/03/28 11:04:22;;;;;;;;;;;;;;;32.48;28.67;101068.09;6086148;23;7151;-76
2022/03/28 11:07:00;;;;;;;;;;;;;;;32.47;28.70;101063.72;6109387;23;7146;-76
2022/03/28 11:09:41;;;;;;;;;;;;;;;32.67;28.44;101059.50;6110252;23;6954;-76
2022/03/28 11:12:17;;;;;;;;;;;;;;;32.80;28.40;101058.16;6108810;23;7047;-76
2022/03/28 11:14:51;;;;;;;;;;;;;;;32.91;27.94;101057.78;6111753;23;6771;-74
2022/03/28 11:17:31;;;;;;;;;;;;;;;33.09;27.31;101052.78;6110280;23;6830;-74
2022/03/28 11:20:14;;;;;;;;;;;;;;;33.00;27.06;101058.41;6135978;23;7072;-73
2022/03/28 11:22:57;;;;;;;;;;;;;;;32.84;27.10;101056.25;6108150;23;6778;-73
2022/03/28 11:25:34;;;;;;;;;;;;;;;32.56;26.38;101049.25;6110589;23;6825;-73
2022/03/28 11:28:07;;;;;;;;;;;;;;;32.30;25.63;101053.63;6111325;23;6779;-73
2022/03/28 11:30:45;;;;;;;;;;;;;;;32.27;26.05;101051.97;6109723;23;6940;-74
2022/03/28 11:33:14;;;;;;;;;;;;;;;32.33;26.40;101050.00;6111889;23;7799;-74
2022/03/28 11:36:05;;;;;;;;;;;;;;;32.41;26.26;101042.69;6113198;23;6854;-73
2022/03/28 11:38:37;;;;;;;;;;;;;;;32.59;26.67;101045.66;6111501;23;6858;-74
2022/03/28 11:41:04;;;;;;;;;;;;;;;32.77;25.96;101038.81;6111909;23;6942;-74
2022/03/28 11:43:39;;;;;;;;;;;;;;;32.83;25.79;101033.31;6109603;23;6782;-74
2022/03/28 11:46:21;;;;;;;;;;;;;;;32.82;26.18;101027.13;6109386;23;7378;-74
2022/03/28 11:49:04;;;;;;;;;;;;;;;32.92;25.84;101024.16;6106790;23;6786;-74
2022/03/28 11:51:36;;;;;;;;;;;;;;;32.90;25.47;101018.03;6111477;23;6783;-74
2022/03/28 11:54:06;;;;;;;;;;;;;;;32.83;26.00;101018.22;6108732;23;6790;-74
2022/03/28 11:58:14;;;;;;;;;;;;;;;32.81;25.31;101016.56;6135187;23;6946;-74
2022/03/28 11:59:22;;;;;;;;;;;;;;;32.66;25.51;101013.53;6110321;23;7035;-74
2022/03/28 12:02:02;;;;;;;;;;;;;;;32.59;25.76;101013.81;6109584;23;6782;-73
2022/03/28 12:04:28;;;;;;;;;;;;;;;32.35;25.50;101003.09;6111681;23;6774;-74
2022/03/28 12:06:54;;;;;;;;;;;;;;;32.18;25.84;101004.53;6108989;23;6966;-74
2022/03/28 12:09:21;;;;;;;;;;;;;;;32.08;25.84;101008.41;6107318;23;6766;-73
2022/03/28 12:11:55;;;;;;;;;;;;;;;32.05;26.08;101004.06;6111025;23;6778;-74
2022/03/28 12:14:22;;;;;;;;;;;;;;;32.11;25.82;101001.22;6110320;23;6802;-73
2022/03/28 12:16:57;;;;;;;;;;;;;;;32.01;25.54;100997.13;6111576;23;6782;-74
2022/03/28 12:19:26;;;;;;;;;;;;;;;31.85;26.16;100996.75;6113875;23;6790;-73
2022/03/28 12:21:55;;;;;;;;;;;;;;;31.64;26.02;100993.84;6110043;23;6782;-73
2022/03/28 12:24:22;;;;;;;;;;;;;;;31.38;26.14;100992.84;6109465;23;6802;-73
2022/03/28 12:26:52;;;;;;;;;;;;;;;31.14;26.75;100986.47;6109656;23;7112;-73
2022/03/28 12:29:17;;;;;;;;;;;;;;;31.15;26.44;100981.16;6111731;23;6982;-73
2022/03/28 12:31:47;;;;;;;;;;;;;;;31.18;26.13;100974.91;6110911;23;6770;-73
2022/03/28 12:34:17;;;;;;;;;;;;;;;31.06;26.51;100973.47;6111344;23;8061;-73
2022/03/28 12:36:43;;;;;;;;;;;;;;;30.68;26.94;100971.00;6111393;23;6783;-73
2022/03/28 12:39:11;;;;;;;;;;;;;;;29.97;26.78;100973.63;6112159;23;6778;-74
2022/03/28 12:41:46;;;;;;;;;;;;;;;29.16;27.42;100969.25;6108893;23;6840;-73
2022/03/28 12:44:23;;;;;;;;;;;;;;;28.38;28.55;100974.16;6112985;23;7004;-73
2022/03/28 12:46:50;;;;;;;;;;;;;;;27.75;29.07;100965.50;6111568;23;6782;-73
2022/03/28 12:49:20;;;;;;;;;;;;;;;27.28;29.59;100960.81;6087467;23;7084;-73
2022/03/28 12:51:48;;;;;;;;;;;;;;;26.91;30.20;100958.63;6110371;23;6779;-73
2022/03/28 12:54:20;;;;;;;;;;;;;;;26.73;30.47;100968.44;6110811;23;6958;-76
2022/03/28 12:56:59;;;;;;;;;;;;;;;26.70;30.63;100952.69;6110117;23;6782;-75
2022/03/28 12:59:33;;;;;;;;;;;;;;;26.94;30.45;100948.06;6110273;23;6915;-76
2022/03/28 13:02:17;;;;;;;;;;;;;;;27.42;29.82;100943.97;6110657;23;6783;-76